Time;durP1;ratioP1;P1;durP2;ratioP2;P2;SDS_P1;SDS_P2;PMS_P1;PMS_P2;Temp;Humidity;BMP_temperature;BMP_pressure;BME280_temperature;BME280_humidity;BME280_pressure;Samples;Min_cycle;Max_cycle;Signal;HPM_P1;HPM_P2
2022/02/05 00:01:46;;;;;;;;;4.75;3.50;;;;;6.39;62.35;101968.25;6125259;23;45487;-83
2022/02/05 00:04:48;;;;;;;;;3.00;2.00;;;;;6.21;62.28;101941.47;6123000;23;45867;-83
2022/02/05 00:07:22;;;;;;;;;3.00;3.00;;;;;6.40;62.38;101974.34;6123327;23;45438;-83
2022/02/05 00:10:27;;;;;;;;;7.00;5.00;;;;;6.30;62.76;101962.69;6123650;23;45407;-82
2022/02/05 00:15:44;;;;;;;;;4.00;4.00;;;;;6.32;62.48;101968.00;6274531;22;45409;-83
2022/02/05 00:38:19;;;;;;;;;5.75;3.50;;;;;6.34;62.70;101992.47;6277853;22;45453;-82
2022/02/05 00:43:51;;;;;;;;;8.00;6.00;;;;;6.21;63.00;101974.59;6276701;22;45342;-81
2022/02/05 00:46:18;;;;;;;;;5.75;5.75;;;;;6.15;63.07;101976.16;6247986;22;45660;-82
2022/02/05 00:48:49;;;;;;;;;5.25;5.25;;;;;6.24;63.42;101995.59;6275843;22;46169;-82
2022/02/05 00:51:21;;;;;;;;;7.25;5.00;;;;;6.09;62.90;101968.06;6248430;22;45350;-82
2022/02/05 00:53:57;;;;;;;;;6.50;3.00;;;;;6.14;62.80;101976.97;6249348;22;45661;-82
2022/02/05 00:56:48;;;;;;;;;7.00;5.00;;;;;6.15;63.32;101978.78;6248143;22;45768;-82
2022/02/05 00:59:16;;;;;;;;;11.50;3.75;;;;;6.23;63.50;101996.44;6276150;22;45626;-83
2022/02/05 01:01:43;;;;;;;;;7.00;3.00;;;;;6.16;63.22;101977.03;6248290;22;45493;-82
2022/02/05 01:04:09;;;;;;;;;5.50;4.75;;;;;6.14;63.42;101982.19;6248458;22;45774;-82
2022/02/05 01:06:35;;;;;;;;;3.25;3.25;;;;;6.21;63.18;102001.63;6247525;22;45745;-82
2022/02/05 01:09:16;;;;;;;;;5.00;3.25;;;;;6.03;63.38;101965.25;6274393;22;45283;-81
2022/02/05 01:11:42;;;;;;;;;4.50;2.00;;;;;6.05;63.25;101978.41;6246923;22;45359;-81
2022/02/05 01:14:11;;;;;;;;;5.50;3.75;;;;;6.16;63.23;101993.59;6247667;22;45804;-81
2022/02/05 01:17:00;;;;;;;;;5.75;4.50;;;;;6.16;63.25;101996.22;6247943;22;45360;-81
2022/02/05 01:22:13;;;;;;;;;5.75;4.25;;;;;6.12;63.19;101985.59;6275897;22;45395;-82
2022/02/05 01:24:59;;;;;;;;;4.50;4.25;;;;;6.01;63.24;101982.63;6247283;22;45221;-81
2022/02/05 04:52:11;;;;;;;;;4.00;2.00;;;;;5.84;64.07;102135.28;6252085;22;46585;-81
2022/02/05 07:15:26;;;;;;;;;5.00;2.00;;;;;5.64;66.70;102257.28;6260433;22;47314;-82
2022/02/05 07:18:43;;;;;;;;;;;;;;;;;;;;;
2022/02/05 07:21:28;;;;;;;;;;;;;;;;;;;;;
2022/02/05 07:34:20;;;;;;;;;;;;;;;;;;;;;
2022/02/05 07:37:17;;;;;;;;;2.50;2.50;;;;;5.62;66.48;102261.59;6324546;22;76542;-85
2022/02/05 07:39:48;;;;;;;;;5.00;3.00;;;;;5.51;67.05;102240.25;6295550;22;45468;-84
2022/02/05 07:43:02;;;;;;;;;4.25;2.00;;;;;5.56;66.47;102248.25;6293412;22;45180;-82
2022/02/05 07:45:28;;;;;;;;;3.50;3.00;;;;;5.59;66.89;102251.91;6313157;22;45315;-83
2022/02/05 07:47:56;;;;;;;;;4.50;3.00;;;;;5.58;66.66;102239.66;6287749;22;47181;-83
2022/02/05 07:50:21;;;;;;;;;8.75;5.00;;;;;5.63;66.78;102248.56;6284187;22;45296;-84
2022/02/05 07:52:47;;;;;;;;;5.25;4.00;;;;;5.76;67.03;102278.72;6310381;22;45310;-80
2022/02/05 07:55:15;;;;;;;;;2.00;2.00;;;;;5.85;66.87;102278.19;6281770;22;45577;-82
2022/02/05 07:57:40;;;;;;;;;2.25;2.25;;;;;5.74;66.76;102260.34;6282087;22;48315;-82
2022/02/05 08:00:09;;;;;;;;;6.50;4.75;;;;;5.74;66.84;102259.47;6281368;22;45235;-83
2022/02/05 09:21:00;;;;;;;;;6.00;3.00;;;;;6.63;67.76;102296.97;6151571;23;45912;-86
2022/02/05 09:35:07;;;;;;;;;;;;;;;;;;;;;
2022/02/05 09:37:34;;;;;;;;;2.75;2.75;;;;;6.90;67.69;102267.41;6040989;23;74623;-84
2022/02/05 09:40:06;;;;;;;;;3.25;3.00;;;;;7.06;67.51;102280.22;6064557;23;45393;-85
2022/02/05 09:42:31;;;;;;;;;2.50;2.50;;;;;7.09;67.29;102282.94;6069439;23;45287;-80
2022/02/05 09:45:02;;;;;;;;;2.00;2.00;;;;;7.09;67.18;102276.81;6064692;23;45462;-82
2022/02/05 09:47:35;;;;;;;;;2.00;2.00;;;;;7.09;67.02;102269.84;6041227;23;46953;-84
2022/02/05 09:50:32;;;;;;;;;;;;;;;;;;;;;
2022/02/05 12:51:16;;;;;;;;;1.00;1.00;;;;;15.51;44.27;102233.81;6194208;22;45503;-79
2022/02/05 12:54:40;;;;;;;;;;;;;;;;;;;;;
2022/02/05 12:57:06;;;;;;;;;1.33;1.00;;;;;16.04;42.16;102243.53;6219905;22;74206;-81
2022/02/05 13:00:20;;;;;;;;;;;;;;;;;;;;;
2022/02/05 13:10:26;;;;;;;;;;;;;;;;;;;;;
2022/02/05 13:14:00;;;;;;;;;2.00;2.00;;;;;17.37;39.16;102243.75;6208567;22;69132;-83
2022/02/05 13:27:09;;;;;;;;;1.67;1.67;;;;;18.52;37.28;102226.63;6071706;23;45312;-82
2022/02/05 13:29:40;;;;;;;;;1.00;1.00;;;;;18.83;37.63;102215.56;6177502;22;45579;-82
2022/02/05 13:35:02;;;;;;;;;3.00;3.00;;;;;19.07;36.70;102200.97;6276817;22;45173;-82
2022/02/05 13:37:33;;;;;;;;;3.67;2.00;;;;;19.21;36.88;102212.31;6248923;22;45312;-82
2022/02/05 13:40:02;;;;;;;;;1.00;1.00;;;;;19.29;35.25;102217.53;6248862;22;45426;-82
2022/02/05 13:42:36;;;;;;;;;3.67;1.67;;;;;19.24;34.35;102200.69;6249662;22;45892;-81
2022/02/05 13:45:31;;;;;;;;;1.00;1.00;;;;;19.40;34.42;102194.19;6250044;22;45315;-80
2022/02/05 13:47:59;;;;;;;;;1.67;1.00;;;;;19.06;34.44;102189.44;6278271;22;45310;-81
2022/02/05 13:50:27;;;;;;;;;2.33;2.00;;;;;18.94;34.69;102197.59;6250689;22;45396;-81
2022/02/05 13:52:58;;;;;;;;;0.00;0.00;;;;;19.01;34.25;102195.75;6278110;22;45223;-81
2022/02/05 13:55:33;;;;;;;;;0.33;0.33;;;;;19.06;32.96;102192.09;6278073;22;45339;-81
2022/02/05 13:58:14;;;;;;;;;1.00;1.00;;;;;19.42;34.05;102200.38;6250707;22;45321;-81
2022/02/05 14:00:44;;;;;;;;;1.67;1.00;;;;;19.87;33.92;102195.16;6250409;22;45386;-81
2022/02/05 14:03:11;;;;;;;;;1.00;1.00;;;;;20.18;33.15;102194.53;6250579;22;47057;-81
2022/02/05 14:06:01;;;;;;;;;1.00;1.00;;;;;20.41;32.90;102196.75;6249869;22;45169;-81
2022/02/05 14:08:36;;;;;;;;;0.67;0.00;;;;;20.68;31.77;102190.81;6236106;22;45362;-81
2022/02/05 14:11:07;;;;;;;;;1.67;0.33;;;;;21.12;30.94;102188.00;6266918;22;45739;-81
2022/02/05 14:13:33;;;;;;;;;0.00;0.00;;;;;21.65;29.43;102198.28;6309501;22;45345;-81
2022/02/05 14:16:00;;;;;;;;;1.00;1.00;;;;;22.45;29.13;102199.63;6281074;22;45334;-81
2022/02/05 14:18:28;;;;;;;;;1.00;1.00;;;;;23.69;29.61;102183.97;6281471;22;45394;-82
2022/02/05 14:20:58;;;;;;;;;0.67;0.67;;;;;25.01;28.24;102184.34;6280929;22;45470;-82
2022/02/05 14:23:27;;;;;;;;;1.67;0.67;;;;;26.19;27.60;102168.41;6309108;22;45215;-82
2022/02/05 14:26:01;;;;;;;;;2.00;2.00;;;;;27.13;26.94;102174.72;6280728;22;45366;-81
2022/02/05 14:28:46;;;;;;;;;2.00;0.67;;;;;27.78;25.42;102173.16;6281175;22;45362;-82
2022/02/05 14:31:18;;;;;;;;;2.00;2.00;;;;;28.06;24.56;102179.81;6281721;22;45810;-81
2022/02/05 14:41:57;;;;;;;;;0.67;0.67;;;;;28.91;23.19;102184.97;6308311;22;45174;-81
2022/02/05 14:44:23;;;;;;;;;0.33;0.33;;;;;29.10;22.28;102194.78;6308251;22;45619;-81
2022/02/05 14:46:51;;;;;;;;;0.00;0.00;;;;;29.06;21.78;102185.94;6280500;22;45192;-81
2022/02/05 14:49:17;;;;;;;;;0.67;0.33;;;;;29.15;21.58;102182.69;6281157;22;45409;-81
2022/02/05 14:51:43;;;;;;;;;12.67;10.67;;;;;29.41;22.02;102193.84;6308513;22;45364;-82
2022/02/05 14:54:15;;;;;;;;;1.00;1.00;;;;;29.62;20.62;102183.50;6280573;22;46846;-82
2022/02/05 14:56:41;;;;;;;;;0.67;0.33;;;;;29.35;19.95;102195.06;6280717;22;45429;-82
2022/02/05 14:59:08;;;;;;;;;1.67;1.67;;;;;29.48;20.96;102195.19;6281361;22;45414;-82
2022/02/05 15:01:37;;;;;;;;;1.00;1.00;;;;;29.20;19.74;102199.56;6306998;22;45443;-83
2022/02/05 15:04:12;;;;;;;;;1.00;0.00;;;;;28.70;20.53;102197.91;6280122;22;46834;-82
2022/02/05 15:06:46;;;;;;;;;0.33;0.33;;;;;28.39;20.68;102185.22;6279840;22;45256;-82
2022/02/05 15:09:12;;;;;;;;;0.00;0.00;;;;;28.21;19.98;102178.97;6280736;22;45195;-82
2022/02/05 15:11:40;;;;;;;;;1.00;0.00;;;;;28.07;21.03;102182.44;6280122;22;45620;-82
2022/02/05 15:14:06;;;;;;;;;1.67;1.00;;;;;28.29;20.79;102182.13;6280280;22;47057;-82
2022/02/05 15:16:44;;;;;;;;;2.00;2.00;;;;;28.38;21.12;102173.47;6280662;22;45333;-82
2022/02/05 15:19:10;;;;;;;;;1.00;1.00;;;;;27.78;20.88;102172.28;6309477;22;45373;-82
2022/02/05 15:21:39;;;;;;;;;0.67;0.67;;;;;27.12;21.76;102171.13;6280846;22;45394;-82
2022/02/05 15:24:06;;;;;;;;;0.67;0.67;;;;;27.10;21.90;102183.84;6280577;22;47316;-82
2022/02/05 15:26:35;;;;;;;;;3.00;1.67;;;;;27.02;21.59;102184.25;6280892;22;45623;-82
2022/02/05 15:29:03;;;;;;;;;1.00;1.00;;;;;25.52;21.93;102180.41;6281451;22;45184;-82
2022/02/05 15:31:31;;;;;;;;;2.00;2.00;;;;;24.29;22.83;102196.13;6281172;22;45489;-82
2022/02/05 15:34:02;;;;;;;;;1.00;0.00;;;;;23.03;24.68;102188.91;6280343;22;48010;-83
2022/02/05 15:36:45;;;;;;;;;2.00;2.00;;;;;21.81;25.20;102191.59;6306910;22;45235;-82
2022/02/05 15:39:28;;;;;;;;;0.67;0.67;;;;;20.64;26.28;102189.13;6308263;22;45227;-82
2022/02/05 15:44:48;;;;;;;;;1.00;1.00;;;;;18.89;28.90;102188.78;6308937;22;45392;-82
2022/02/05 15:47:16;;;;;;;;;2.00;1.00;;;;;18.46;29.70;102186.69;6281720;22;45411;-83
2022/02/05 15:49:42;;;;;;;;;0.67;0.67;;;;;18.17;29.89;102203.94;6280881;22;45279;-82
2022/02/05 15:52:22;;;;;;;;;2.00;2.00;;;;;17.82;30.61;102191.00;6310624;22;45199;-82
2022/02/05 15:54:53;;;;;;;;;4.00;1.00;;;;;17.53;31.24;102186.81;6282039;22;48261;-82
2022/02/05 16:00:46;;;;;;;;;3.33;1.33;;;;;16.71;32.47;102175.91;6266302;22;45683;-83
2022/02/05 16:03:17;;;;;;;;;3.00;3.00;;;;;16.35;33.24;102195.59;6280154;22;45388;-83
2022/02/05 16:05:48;;;;;;;;;1.00;1.00;;;;;15.98;33.70;102203.69;6279954;22;46151;-83
2022/02/05 16:08:14;;;;;;;;;2.00;2.00;;;;;15.62;34.04;102191.34;6279623;22;45331;-82
2022/02/05 16:10:39;;;;;;;;;5.33;3.67;;;;;15.38;34.51;102198.44;6308095;22;45435;-83
2022/02/05 16:13:13;;;;;;;;;2.33;2.00;;;;;15.18;35.33;102211.72;6277999;22;45324;-82
2022/02/05 16:15:44;;;;;;;;;4.33;4.33;;;;;14.91;36.00;102207.22;6280010;22;47196;-83
2022/02/05 16:18:19;;;;;;;;;2.00;2.00;;;;;14.58;36.43;102194.78;6308744;22;45235;-84
2022/02/05 16:20:57;;;;;;;;;3.67;3.67;;;;;14.41;36.95;102207.06;6306103;22;45195;-88
2022/02/05 16:23:23;;;;;;;;;1.00;1.00;;;;;14.09;37.39;102199.84;6276004;22;45550;-83
2022/02/05 16:25:48;;;;;;;;;6.00;3.00;;;;;13.93;38.72;102205.94;6277954;22;46907;-84
2022/02/05 16:28:17;;;;;;;;;4.00;4.00;;;;;13.74;38.56;102205.81;6305989;22;45445;-82
2022/02/05 16:30:46;;;;;;;;;5.00;4.00;;;;;13.61;39.20;102207.50;6305407;22;45694;-82
2022/02/05 16:33:17;;;;;;;;;1.67;1.33;;;;;13.40;39.93;102192.34;6277543;22;45471;-82
2022/02/05 16:35:59;;;;;;;;;3.67;3.00;;;;;13.29;40.01;102183.44;6276730;22;46174;-82
2022/02/05 16:38:31;;;;;;;;;2.00;1.00;;;;;13.16;40.53;102185.06;6305964;22;45499;-82
2022/02/05 16:41:09;;;;;;;;;1.00;1.00;;;;;12.96;41.10;102173.41;6305095;22;45420;-83
2022/02/05 16:43:38;;;;;;;;;3.33;3.33;;;;;12.80;41.17;102175.91;6305132;22;45501;-82
2022/02/05 16:46:09;;;;;;;;;3.00;2.00;;;;;12.72;41.73;102187.25;6275849;22;47452;-83
2022/02/05 16:48:38;;;;;;;;;2.00;2.00;;;;;12.51;41.96;102188.81;6276622;22;45465;-83
2022/02/05 16:51:13;;;;;;;;;1.00;1.00;;;;;12.27;42.59;102167.34;6303782;22;45745;-82
2022/02/05 16:54:19;;;;;;;;;2.33;2.33;;;;;12.10;43.14;102173.31;6304357;22;45354;-83
2022/02/05 16:56:47;;;;;;;;;4.25;4.25;;;;;12.01;43.31;102199.59;6275702;22;47560;-81
2022/02/05 16:59:13;;;;;;;;;2.75;2.75;;;;;11.88;43.81;102192.38;6276699;22;45404;-82
2022/02/05 17:01:42;;;;;;;;;5.75;4.00;;;;;11.66;44.17;102164.78;6276860;22;45379;-83
2022/02/05 17:04:13;;;;;;;;;2.25;2.25;;;;;11.62;44.16;102178.75;6304875;22;45340;-84
2022/02/05 17:07:16;;;;;;;;;4.00;3.00;;;;;11.41;44.70;102158.22;6306215;22;45520;-85
2022/02/05 17:36:21;;;;;;;;;2.50;2.00;;;;;10.63;49.03;102185.84;5948160;23;45488;-85
2022/02/05 17:38:49;;;;;;;;;3.50;3.50;;;;;10.41;49.24;102158.22;5991535;23;45435;-84
2022/02/05 17:41:17;;;;;;;;;4.00;4.00;;;;;10.54;49.16;102181.31;6125106;23;45405;-84
2022/02/05 17:43:56;;;;;;;;;;;;;;;;;;;;;
2022/02/05 17:46:47;;;;;;;;;6.25;3.75;;;;;10.42;49.88;102181.94;6303997;22;75528;-86
2022/02/05 17:49:32;;;;;;;;;3.75;3.75;;;;;10.35;50.38;102180.94;6278250;22;45792;-85
2022/02/05 17:52:01;;;;;;;;;7.50;6.00;;;;;10.29;50.43;102174.63;6277307;22;45502;-85
2022/02/05 18:15:57;;;;;;;;;4.00;4.00;;;;;9.79;52.26;102151.63;6189822;22;45487;-86
2022/02/05 18:18:37;;;;;;;;;3.00;3.00;;;;;9.72;52.59;102141.81;6184866;22;45677;-87
2022/02/05 18:21:09;;;;;;;;;11.00;5.00;;;;;9.67;53.06;102136.44;6183685;22;45562;-84
2022/02/05 18:27:55;;;;;;;;;;;;;;;;;;;;;
2022/02/05 18:30:24;;;;;;;;;4.50;3.75;;;;;9.67;53.19;102151.34;6062701;23;67668;-83
2022/02/05 19:12:28;;;;;;;;;8.75;8.75;;;;;9.36;55.17;102149.75;6185354;23;45313;-88
2022/02/05 19:20:44;;;;;;;;;7.25;5.25;;;;;9.29;55.66;102146.09;6309930;22;45595;-85
2022/02/05 19:26:40;;;;;;;;;8.50;6.50;;;;;9.26;55.86;102159.16;6186621;23;45275;-85
2022/02/05 19:29:43;;;;;;;;;8.00;7.00;;;;;9.10;56.26;102142.13;6161346;23;45425;-84
2022/02/05 19:32:25;;;;;;;;;7.50;6.25;;;;;9.23;55.84;102152.09;6183232;23;45398;-85
2022/02/05 19:35:14;;;;;;;;;5.00;5.00;;;;;9.15;55.64;102121.22;6165087;23;45482;-84
2022/02/05 19:38:28;;;;;;;;;;;;;;;;;;;;;
2022/02/05 19:40:56;;;;;;;;;9.75;8.25;;;;;9.19;55.87;102133.56;6193742;23;69709;-84
2022/02/05 19:43:25;;;;;;;;;8.00;7.00;;;;;9.23;55.99;102141.56;6272959;22;45600;-83
2022/02/05 19:45:59;;;;;;;;;5.25;3.25;;;;;9.13;56.29;102115.03;6312502;22;45623;-83
2022/02/05 19:48:53;;;;;;;;;10.50;10.00;;;;;9.21;55.98;102126.63;6280910;22;45392;-87
2022/02/05 19:51:18;;;;;;;;;9.00;8.00;;;;;9.27;55.80;102137.28;6308709;22;45432;-84
2022/02/05 19:53:53;;;;;;;;;8.50;7.25;;;;;9.29;56.20;102140.81;6308816;22;45371;-84
2022/02/05 19:56:19;;;;;;;;;8.75;7.75;;;;;9.14;55.90;102114.19;6309196;22;46280;-84
2022/02/05 19:58:44;;;;;;;;;8.25;8.25;;;;;9.33;56.12;102142.69;6282642;22;45361;-83
2022/02/05 20:01:10;;;;;;;;;4.25;3.25;;;;;9.29;56.51;102132.94;6283537;22;45398;-84
2022/02/05 20:03:48;;;;;;;;;9.75;8.00;;;;;9.34;56.16;102144.47;6321381;22;45453;-83
2022/02/05 20:10:52;;;;;;;;;7.00;6.25;;;;;9.37;56.04;102130.50;6098211;23;45544;-84
2022/02/05 20:13:20;;;;;;;;;9.75;8.75;;;;;9.29;56.57;102117.19;6113811;22;44762;-84
2022/02/05 20:15:52;;;;;;;;;8.75;8.75;;;;;9.33;56.62;102128.63;6217210;22;45538;-86
2022/02/05 20:18:49;;;;;;;;;6.50;6.00;;;;;9.20;56.53;102103.84;6249276;22;47182;-85
2022/02/05 20:21:33;;;;;;;;;8.00;8.00;;;;;9.28;56.33;102118.03;6298902;22;44779;-84
2022/02/05 20:24:01;;;;;;;;;9.50;8.50;;;;;9.27;56.54;102106.66;6292849;22;45325;-82
2022/02/05 20:26:28;;;;;;;;;6.00;6.00;;;;;9.28;56.45;102110.16;6321686;22;45507;-83
2022/02/05 20:28:55;;;;;;;;;7.25;5.50;;;;;9.40;56.60;102128.81;6321501;22;45813;-85
2022/02/05 20:31:25;;;;;;;;;8.50;8.50;;;;;9.23;56.68;102098.66;6281405;22;45351;-84
2022/02/05 20:33:53;;;;;;;;;8.75;8.25;;;;;9.40;56.88;102118.31;6281823;22;45399;-84
2022/02/05 20:36:19;;;;;;;;;4.00;4.00;;;;;9.36;57.16;102110.34;6282034;22;45478;-84
2022/02/05 20:38:45;;;;;;;;;7.50;4.00;;;;;9.39;56.81;102115.66;6283312;22;48056;-83
2022/02/05 20:41:11;;;;;;;;;5.50;5.50;;;;;9.38;56.63;102111.25;6309067;22;45353;-84
2022/02/05 20:43:37;;;;;;;;;10.00;7.25;;;;;9.40;56.68;102109.53;6308367;22;45592;-83
2022/02/05 20:46:03;;;;;;;;;9.25;8.25;;;;;9.41;56.65;102106.06;6308439;22;45484;-84
2022/02/05 20:48:34;;;;;;;;;5.00;5.00;;;;;9.38;56.97;102099.03;6308502;22;45730;-83
2022/02/05 20:51:06;;;;;;;;;5.50;4.00;;;;;9.42;56.77;102099.97;6305926;22;45350;-82
2022/02/05 20:53:54;;;;;;;;;6.75;4.00;;;;;9.22;56.96;102071.50;6280000;22;45491;-84
2022/02/05 20:56:24;;;;;;;;;8.50;6.50;;;;;9.37;56.95;102080.56;6280052;22;45530;-83
2022/02/05 20:58:50;;;;;;;;;9.00;7.25;;;;;9.25;56.87;102058.41;6308116;22;45549;-82
2022/02/05 21:01:17;;;;;;;;;7.50;7.50;;;;;9.40;56.94;102094.66;6281223;22;45478;-84
2022/02/05 21:03:46;;;;;;;;;7.00;7.00;;;;;9.29;56.99;102080.38;6306886;22;45726;-84
2022/02/05 21:06:14;;;;;;;;;6.50;4.50;;;;;9.27;56.91;102061.06;6279615;22;45661;-81
2022/02/05 21:08:40;;;;;;;;;5.00;4.00;;;;;9.44;56.95;102088.63;6279045;22;48308;-83
2022/02/05 21:11:05;;;;;;;;;7.50;7.00;;;;;9.36;56.97;102076.19;6279169;22;45331;-83
2022/02/05 21:13:34;;;;;;;;;7.75;5.00;;;;;9.45;56.98;102081.63;6309353;22;45397;-82
2022/02/05 21:16:00;;;;;;;;;5.75;4.75;;;;;9.49;57.15;102083.50;6309344;22;45481;-83
2022/02/05 21:18:28;;;;;;;;;5.00;4.50;;;;;9.45;56.61;102073.75;6278551;22;46427;-81
2022/02/05 21:20:54;;;;;;;;;6.75;4.00;;;;;9.43;57.11;102067.56;6279076;22;45483;-80
2022/02/05 21:23:21;;;;;;;;;5.00;4.00;;;;;9.53;56.95;102087.06;6307395;22;45458;-82
2022/02/05 21:25:51;;;;;;;;;6.50;4.00;;;;;9.44;56.65;102080.75;6278486;22;45844;-82
2022/02/05 21:28:20;;;;;;;;;5.00;5.00;;;;;9.54;56.89;102087.06;6306499;22;46348;-82
2022/02/05 21:30:54;;;;;;;;;5.00;5.00;;;;;9.55;56.80;102085.38;6278082;22;45492;-83
2022/02/05 21:36:10;;;;;;;;;2.50;2.50;;;;;9.58;56.57;102085.44;6306489;22;45453;-82
2022/02/05 21:38:36;;;;;;;;;9.25;8.25;;;;;9.47;56.67;102072.03;6277917;22;46692;-83
2022/02/05 21:41:03;;;;;;;;;5.50;5.00;;;;;9.44;56.49;102051.84;6278299;22;45807;-83
2022/02/05 21:43:28;;;;;;;;;8.75;4.50;;;;;9.61;56.76;102085.50;6310231;22;45469;-83
2022/02/05 21:45:59;;;;;;;;;5.25;5.25;;;;;9.53;56.45;102058.16;6278357;22;45755;-82
2022/02/05 21:48:25;;;;;;;;;6.25;4.75;;;;;9.48;56.63;102053.66;6305947;22;46041;-83
2022/02/05 21:50:53;;;;;;;;;5.00;4.00;;;;;9.54;56.50;102054.66;6306014;22;45410;-83
2022/02/05 21:53:21;;;;;;;;;4.75;3.75;;;;;9.48;56.53;102048.41;6306151;22;45394;-84
2022/02/05 21:55:52;;;;;;;;;7.00;4.75;;;;;9.54;56.31;102058.16;6278299;22;45608;-84
2022/02/05 21:58:34;;;;;;;;;7.25;6.25;;;;;9.50;56.58;102051.97;6277862;22;45977;-84
2022/02/05 22:01:24;;;;;;;;;2.67;2.67;;;;;9.45;56.31;102040.44;6273933;22;45454;-84
2022/02/05 22:03:49;;;;;;;;;8.00;6.00;;;;;9.57;56.70;102057.34;6278528;22;45814;-83
2022/02/05 22:06:15;;;;;;;;;7.00;5.00;;;;;9.51;56.48;102044.94;6276298;22;45651;-83
2022/02/05 22:08:40;;;;;;;;;3.50;3.00;;;;;9.52;56.68;102045.88;6276463;22;46919;-85
2022/02/05 22:11:05;;;;;;;;;8.75;4.25;;;;;9.57;56.62;102052.06;6305773;22;45400;-84
2022/02/05 22:13:31;;;;;;;;;8.00;7.75;;;;;9.42;56.98;102036.88;6308052;22;45315;-82
2022/02/05 22:15:56;;;;;;;;;5.50;5.50;;;;;9.46;56.74;102041.34;6307560;22;45602;-83
2022/02/05 22:18:22;;;;;;;;;9.00;7.75;;;;;9.49;56.87;102047.56;6278871;22;46895;-83
2022/02/05 22:20:47;;;;;;;;;3.25;3.00;;;;;9.45;56.92;102026.44;6279639;22;45336;-82
2022/02/05 22:23:13;;;;;;;;;10.00;7.50;;;;;9.40;56.81;102026.31;6306612;22;45291;-82
2022/02/05 22:25:38;;;;;;;;;5.75;4.25;;;;;9.52;57.22;102045.88;6279260;22;45389;-83
2022/02/05 22:28:06;;;;;;;;;3.75;3.75;;;;;9.44;57.12;102029.94;6307047;22;45353;-84
2022/02/05 22:30:32;;;;;;;;;8.75;6.75;;;;;9.50;57.19;102038.81;6307062;22;45361;-83
2022/02/05 22:33:03;;;;;;;;;3.75;2.75;;;;;9.49;57.13;102037.06;6307506;22;45989;-85
2022/02/05 22:35:31;;;;;;;;;2.75;2.50;;;;;9.52;57.12;102032.72;6279400;22;45543;-85
2022/02/05 22:37:57;;;;;;;;;4.50;2.75;;;;;9.37;57.10;102015.75;6304990;22;48134;-85
2022/02/05 22:40:23;;;;;;;;;4.00;3.00;;;;;9.39;57.02;102000.03;6278785;22;45350;-83
2022/02/05 22:42:49;;;;;;;;;3.00;2.00;;;;;9.37;57.23;102006.97;6279323;22;45775;-83
2022/02/05 22:45:16;;;;;;;;;3.50;3.50;;;;;9.43;57.08;102007.97;6308168;22;45775;-85
2022/02/05 22:47:42;;;;;;;;;4.25;4.25;;;;;9.52;57.22;102033.59;6307502;22;46115;-84
2022/02/05 22:50:10;;;;;;;;;5.50;3.00;;;;;9.52;57.10;102016.94;6307320;22;45366;-83
2022/02/05 22:55:57;;;;;;;;;6.50;4.50;;;;;9.42;57.27;102019.38;6220861;22;45329;-84
2022/02/05 22:58:23;;;;;;;;;3.75;3.00;;;;;9.38;57.05;101995.59;6306892;22;45300;-84
2022/02/05 23:00:56;;;;;;;;;3.25;2.00;;;;;9.33;57.36;101984.09;6307529;22;45759;-83
2022/02/05 23:03:28;;;;;;;;;6.75;4.50;;;;;9.31;57.17;101975.31;6280025;22;45715;-84
2022/02/05 23:06:03;;;;;;;;;8.50;4.00;;;;;9.31;57.57;101970.94;6306996;22;45468;-83
2022/02/05 23:08:33;;;;;;;;;3.00;1.75;;;;;9.38;57.49;101996.50;6304846;22;45909;-82
2022/02/05 23:11:29;;;;;;;;;7.00;5.50;;;;;9.42;57.24;101995.72;6279051;22;45603;-83
2022/02/05 23:30:06;;;;;;;;;6.50;3.25;;;;;9.44;57.42;101980.88;6307171;22;45513;-82
